METAR AND TAF INFORMATION
METAR FOR KHWV
ADDS - METARS form results

(0305 UTC 17 September 2019)
Data provider http://aviationweather.gov/metar/data/
 
METAR text: KHWV 170256Z AUTO 00000KT 10SM CLR 14/12 A3006 RMK AO2 SLP180 T01390122 53010
Conditions at: KHWV (BROOKHAVEN , NY, US) observed 0256 UTC 17 September 2019
Temperature: 13.9°C (57°F)
Dewpoint: 12.2°C (54°F) [RH = 89%]
Pressure (altimeter): 30.06 inches Hg (1018.0 mb)
[Sea-level pressure: 1018.0 mb]
Winds: calm
Visibility: 10 or more miles (16+ km)
Ceiling: at least 12,000 feet AGL
Clouds: sky clear below 12,000 feet AGL
Weather: automated observation with no human augmentation;
there may or may not be significant weather present at this time

 AIRPORT MAP

 RUNWAY INFORMATION
Runway 06 Runway length 4200 ft Runway width 100 ft
Runway elevation 70 ft Runway displaced threshold 0 ft Runway heading 45
Runway 24 Runway length 4200 ft Runway width 100 ft
Runway elevation 81 ft Runway displaced threshold 0 ft Runway heading 225
Runway 15 Runway length 4224 ft Runway width 150 ft
Runway elevation 69 ft Runway displaced threshold 0 ft Runway heading 135
Runway 33 Runway length 4224 ft Runway width 150 ft
Runway elevation 60 ft Runway displaced threshold 0 ft Runway heading 315

 AIRPORT FREQUENCIES
Type A/D Name NEW YORK A Frequency 118 MHZ
Type ASOS Name ASOS Frequency 119.625 MHZ
Type CLD Name CLNC DEL Frequency 133.2 MHZ
Type UNIC Name CTAF/UNICO Frequency 122.8 MHZ

 AIRPORT NEAR NAVIGATION AIDS